Nearby METAR Reports

 

K1V4 - St. Johnsbury, Vermont, USA
Distance from station: NNW 15mi, 24km
Updated: 07/23/2021 11:54pm

 
Temperature: 55°F , 13°C
Dew Point: 54°F , 12°C
Humidity: 94%
Barometer: 30.12 inHg , 1020 hPa
2021/07/24 03:54 K1V4 240354Z AUTO 13/12 A3012 RMK AO1 SLP193 T01330122
KHIE - Whitefield, New Hampshire, USA
Distance from station: ENE 21mi, 34km
Updated: 07/24/2021 12:07am
Mist, Overcast
Mist, Overcast
 Wind from calm
Wind: Calm
Temperature: 50°F , 10°C
Dew Point: 50°F , 10°C
Humidity: 100%
Barometer: 30.15 inHg , 1021 hPa
Summary: Mist
Clouds: Overcast
Visibility: 3/4 mile , 1.2 km
Cloud details: Overcast 100 ft
2021/07/24 04:07 KHIE 240407Z AUTO 00000KT 3/4SM BR VV001 10/10 A3015 RMK AO2 T01000100
KCDA - Lyndonville, Vermont, USA
Distance from station: NNW 25mi, 40km
Updated: 07/24/2021 12:35am
Clear
Clear
 Wind from calm
Wind: Calm
Temperature: 54°F , 12°C
Dew Point: 50°F , 10°C
Humidity: 88%
Barometer: 30.16 inHg , 1021.3 hPa
Clouds: Clear
Visibility: 10 miles , 16 km
2021/07/24 04:35 KCDA 240435Z AUTO 00000KT 10SM CLR 12/10 A3016 RMK AO2 T01160101
 
K1P1 - Plymouth, New Hampshire, USA
Distance from station: SSE 31mi, 49km
Updated: 07/24/2021 12:35am
Mist, Overcast
Mist, Overcast
 Wind from calm
Wind: Calm
Temperature: 57°F , 14°C
Dew Point: 55°F , 13°C
Humidity: 94%
Barometer: 30.13 inHg , 1020.3 hPa
Summary: Mist
Clouds: Overcast
Visibility: 1 mile , 2 km
Cloud details: Overcast 100 ft
2021/07/24 04:35 K1P1 240435Z AUTO 00000KT 1SM BR OVC001 14/13 A3013 RMK AO2 T01360130
KMWN - Mount Washington, New Hampshire, USA
Distance from station: E 31mi, 49km
Updated: 07/23/2021 11:56pm
Mostly cloudy
Mostly cloudy
 Wind from NNE
Wind: NNE 18 mph , 30 km/h
Temperature: 43°F , 6°C
Wind Chill: 35°F , 2°C
Dew Point: 37°F , 3°C
Humidity: 81%
Clouds: Mostly cloudy
Visibility: 70 miles , 112 km
Cloud details: Mostly cloudy 18000 ft
2021/07/24 03:56 KMWN 240356Z 03016KT 70SM BKN180 06/03 RMK PTCHY VLY FG ALQDS
KMPV - Montpelier/Barre, Vermont, USA
Distance from station: W 32mi, 52km
Updated: 07/23/2021 11:51pm
Clear
Clear
 Wind from calm
Wind: Calm
Temperature: 57°F , 14°C
Dew Point: 54°F , 12°C
Humidity: 88%
Barometer: 30.18 inHg , 1022 hPa
Clouds: Clear
Visibility: 10 miles , 16 km
2021/07/24 03:51 KMPV 240351Z AUTO 00000KT 10SM CLR 14/12 A3018 RMK AO2 SLP219 T01390117
 
KMVL - Morrisville, Vermont, USA
Distance from station: WNW 41mi, 66km
Updated: 07/23/2021 11:54pm
Clear
Clear
 Wind from calm
Wind: Calm
Temperature: 54°F , 12°C
Dew Point: 54°F , 12°C
Humidity: 100%
Barometer: 30.15 inHg , 1021 hPa
Clouds: Clear
Visibility: 10 miles , 16 km
2021/07/24 03:54 KMVL 240354Z AUTO 00000KT 10SM CLR 12/12 A3015 RMK AO2 SLP208 T01220117
KBML - Berlin, New Hampshire, USA
Distance from station: NE 44mi, 71km
Updated: 07/24/2021 12:26am
Fog, Overcast
Fog, Overcast
 Wind from calm
Wind: Calm
Temperature: 52°F , 11°C
Dew Point: 50°F , 10°C
Humidity: 94%
Barometer: 30.15 inHg , 1021 hPa
Summary: Fog
Clouds: Overcast
Visibility: 1/4 mile , 0.4 km
Cloud details: Overcast 200 ft
2021/07/24 04:26 KBML 240426Z AUTO 00000KT 1/4SM FG VV002 11/10 A3015 RMK AO2 T01110100
KLEB - Lebanon, New Hampshire, USA
Distance from station: SSW 44mi, 71km
Updated: 07/23/2021 11:53pm
Clear
Clear
 Wind from calm
Wind: Calm
Temperature: 57°F , 14°C
Dew Point: 55°F , 13°C
Humidity: 94%
Barometer: 30.13 inHg , 1020.3 hPa
Clouds: Clear
Visibility: 10 miles , 16 km
2021/07/24 03:53 KLEB 240353Z AUTO 00000KT 10SM CLR 14/13 A3013 RMK AO2 SLP197 T01440128
 
KEFK - Newport State, Vermont, USA
Distance from station: NNW 49mi, 79km
Updated: 07/24/2021 12:35am
Clear
Clear
 Wind from calm
Wind: Calm
Temperature: 54°F , 12°C
Dew Point: 52°F , 11°C
Humidity: 94%
Barometer: 30.15 inHg , 1021 hPa
Clouds: Clear
Visibility: 10 miles , 16 km
2021/07/24 04:35 KEFK 240435Z AUTO 00000KT 10SM CLR 12/11 A3015 RMK AO2 T01200107
KIZG - Fryeburg, Maine, USA
Distance from station: ESE 50mi, 81km
Updated: 07/23/2021 11:54pm
Clear
Clear
 Wind from calm
Wind: Calm
Temperature: 57°F , 14°C
Dew Point: 54°F , 12°C
Humidity: 88%
Barometer: 30.11 inHg , 1019.6 hPa
Clouds: Clear
Visibility: 10 miles , 16 km
2021/07/24 03:54 KIZG 240354Z AUTO 00000KT 10SM CLR 14/12 A3011 RMK AO2 SLP197 T01390122
KLCI - Laconia Muni, New Hampshire, USA
Distance from station: SSE 51mi, 82km
Updated: 07/23/2021 11:56pm
Clear
Clear
 Wind from calm
Wind: Calm
Temperature: 55°F , 13°C
Dew Point: 55°F , 13°C
Humidity: 100%
Barometer: 30.13 inHg , 1020.3 hPa
Clouds: Clear
Visibility: 10 miles , 16 km
2021/07/24 03:56 KLCI 240356Z AUTO 00000KT 10SM CLR 13/13 A3013 RMK AO2 SLP201 T01330133
 
K6B0 - Middlebury, Vermont, USA
Distance from station: WSW 61mi, 98km
Updated: 07/24/2021 12:35am
Clear
Clear
 Wind from calm
Wind: Calm
Temperature: 55°F , 13°C
Dew Point: 55°F , 13°C
Humidity: 100%
Barometer: 30.13 inHg , 1020.3 hPa
Clouds: Clear
Visibility: 10 miles , 16 km
2021/07/24 04:35 K6B0 240435Z AUTO 00000KT 10SM CLR 13/13 A3013 RMK AO2 T01340125
KBTV - Burlington, Vermont, USA
Distance from station: WNW 63mi, 102km
Updated: 07/23/2021 11:54pm
Clear
Clear
 Wind from E
Wind: E 3 mph , 6 km/h
Temperature: 63°F , 17°C
Dew Point: 57°F , 14°C
Humidity: 83%
Barometer: 30.12 inHg , 1020 hPa
Clouds: Clear
Visibility: 10 miles , 16 km
2021/07/24 03:54 KBTV 240354Z 10003KT 10SM CLR 17/14 A3012 RMK AO2 SLP198 "LAST" T01670144
KVSF - Springfield, Vermont, USA
Distance from station: SSW 67mi, 107km
Updated: 07/23/2021 11:54pm
Clear
Clear
 Wind from calm
Wind: Calm
Temperature: 57°F , 14°C
Dew Point: 55°F , 13°C
Humidity: 94%
Barometer: 30.14 inHg , 1020.7 hPa
Clouds: Clear
Visibility: 10 miles , 16 km
2021/07/24 03:54 KVSF 240354Z AUTO 00000KT 10SM CLR 14/13 A3014 RMK AO2 SLP207 T01390133
 
KRUT - Rutland State, Vermont, USA
Distance from station: SW 70mi, 113km
Updated: 07/23/2021 11:56pm
Clear
Clear
 Wind from SE
Wind: SE 10 mph , 17 km/h
Temperature: 57°F , 14°C
Dew Point: 55°F , 13°C
Humidity: 94%
Barometer: 30.15 inHg , 1021 hPa
Clouds: Clear
Visibility: 10 miles , 16 km
2021/07/24 03:56 KRUT 240356Z AUTO 13009KT 10SM CLR 14/13 A3015 RMK AO2 SLP201 T01440128 $
CWFQ - Frelighsburg, Quebec, Canada
Distance from station: NW 72mi, 116km
Updated: 07/24/2021 12:00am

 Wind from SSE
Wind: SSE 5 mph , 7 km/h
Temperature: 61°F , 16°C
Dew Point: 54°F , 12°C
Humidity: 77%
2021/07/24 04:00 CWFQ 240400Z AUTO 16004KT 16/12 RMK AO1 SLP198 T01610121 51002
KCON - Concord, New Hampshire, USA
Distance from station: SSE 73mi, 117km
Updated: 07/23/2021 11:51pm
Clear
Clear
 Wind from NNW
Wind: NNW 3 mph , 6 km/h
Temperature: 59°F , 15°C
Dew Point: 55°F , 13°C
Humidity: 88%
Barometer: 30.12 inHg , 1020 hPa
Clouds: Clear
Visibility: 10 miles , 16 km
2021/07/24 03:51 KCON 240351Z AUTO 34003KT 10SM CLR 15/13 A3012 RMK AO2 SLP197 T01500133
 
CWTT - Lac Memphremagog, Quebec, Canada
Distance from station: N 74mi, 119km
Updated: 07/24/2021 12:00am

 Wind from N
Wind: N 3 mph , 6 km/h
Temperature: 57°F , 14°C
Dew Point: 54°F , 12°C
Humidity: 88%
2021/07/24 04:00 CWTT 240400Z AUTO 35003KT 14/12 RMK AO1 T01430122
KFSO - Highgate, Vermont, USA
Distance from station: NW 77mi, 123km
Updated: 07/24/2021 12:35am
Clear
Clear
 Wind from calm
Wind: Calm
Temperature: 59°F , 15°C
Dew Point: 57°F , 14°C
Humidity: 94%
Barometer: 30.11 inHg , 1019.6 hPa
Clouds: Clear
Visibility: 10 miles , 16 km
2021/07/24 04:35 KFSO 240435Z AUTO 00000KT 10SM CLR 15/14 A3011 RMK AO2 T01500144